Airport View

Enter AWOS ICAO identifier for current METAR.

ex. KFNL

KTTA 112220Z AUTO 00000KT 10SM CLR 05/M06 A3048 RMK AO2 T00491056

11 Dec 2019 22:17

Frequency: 120.625

Phone: 919-708-5382

Other Area AWOS: KSCR - KIGX - KHRJ - KRDU

TAF KRDU 111720Z 1118/1218 36007KT P6SM BKN250 FM120300 VRB03KT P6SM SKC FM121400 05007KT P6SM SKC